createdAt,value
2019-05-19T00:04:48.168Z,7.20
2019-05-19T00:09:51.947Z,6.20
2019-05-19T00:14:55.932Z,7.23
2019-05-19T00:19:59.835Z,7.03
2019-05-19T00:25:03.624Z,9.63
2019-05-19T00:30:07.434Z,7.20
2019-05-19T00:35:11.240Z,7.17
2019-05-19T00:40:15.135Z,8.20
2019-05-19T00:45:19.053Z,7.80
2019-05-19T00:50:22.922Z,7.00
2019-05-19T00:55:26.748Z,7.60
2019-05-19T01:00:30.761Z,8.20
2019-05-19T01:05:34.501Z,8.10
2019-05-19T01:10:38.240Z,7.07
2019-05-19T01:15:42.104Z,7.20
2019-05-19T01:20:45.835Z,7.90
2019-05-19T01:25:49.672Z,8.10
2019-05-19T01:30:53.397Z,7.47
2019-05-19T01:35:57.038Z,8.40
2019-05-19T01:41:00.717Z,8.23
2019-05-19T01:46:04.385Z,8.13
2019-05-19T01:51:08.017Z,7.53
2019-05-19T01:56:11.795Z,8.43
2019-05-19T02:01:15.473Z,7.20
2019-05-19T02:06:19.223Z,7.47
2019-05-19T02:11:23.031Z,8.53
2019-05-19T02:16:26.755Z,8.50
2019-05-19T02:21:30.402Z,8.60
2019-05-19T02:26:34.131Z,7.67
2019-05-19T02:31:37.753Z,7.87
2019-05-19T02:36:41.555Z,6.90
2019-05-19T02:41:45.696Z,7.63
2019-05-19T02:46:49.421Z,6.97
2019-05-19T02:51:53.149Z,8.00
2019-05-19T02:56:57.494Z,7.20
2019-05-19T03:02:03.443Z,7.83
2019-05-19T03:07:07.147Z,7.50
2019-05-19T03:12:10.988Z,7.30
2019-05-19T03:17:14.767Z,8.37
2019-05-19T03:22:18.406Z,7.53
2019-05-19T03:27:22.096Z,7.40
2019-05-19T03:32:34.329Z,7.80
2019-05-19T03:37:38.150Z,7.30
2019-05-19T03:42:41.915Z,7.73
2019-05-19T03:47:45.701Z,7.30
2019-05-19T03:52:49.467Z,7.87
2019-05-19T03:57:53.218Z,7.67
2019-05-19T04:02:56.950Z,8.67
2019-05-19T04:08:00.741Z,7.70
2019-05-19T04:13:04.426Z,7.00
2019-05-19T04:18:08.189Z,7.77
2019-05-19T04:23:11.930Z,7.73
2019-05-19T04:28:15.560Z,7.20
2019-05-19T04:33:19.389Z,7.47
2019-05-19T04:38:23.140Z,7.63
2019-05-19T04:43:26.933Z,7.07
2019-05-19T04:48:30.589Z,7.07
2019-05-19T04:53:34.294Z,7.30
2019-05-19T04:58:38.032Z,7.87
2019-05-19T05:03:41.673Z,6.63
2019-05-19T05:08:45.608Z,7.57
2019-05-19T05:13:49.336Z,7.20
2019-05-19T05:18:53.131Z,7.53
2019-05-19T05:23:56.886Z,7.47
2019-05-19T05:29:00.768Z,7.57
2019-05-19T05:34:04.589Z,7.87
2019-05-19T05:39:08.409Z,8.07
2019-05-19T05:44:12.184Z,7.60
2019-05-19T05:49:15.849Z,7.50
2019-05-19T05:54:19.781Z,6.80
2019-05-19T05:59:23.602Z,7.30
2019-05-19T06:04:27.376Z,7.43
2019-05-19T06:09:31.271Z,7.50
2019-05-19T06:14:35.094Z,7.60
2019-05-19T06:19:38.875Z,7.50
2019-05-19T06:24:42.647Z,7.57
2019-05-19T06:29:46.398Z,7.57
2019-05-19T06:34:50.300Z,7.47
2019-05-19T06:39:54.308Z,7.43
2019-05-19T06:44:58.027Z,6.70
2019-05-19T06:50:02.185Z,7.00
2019-05-19T06:55:07.098Z,7.60
2019-05-19T07:00:12.698Z,7.47
2019-05-19T07:05:16.847Z,7.40
2019-05-19T07:10:20.635Z,7.00
2019-05-19T07:15:24.424Z,6.87
2019-05-19T07:20:28.322Z,7.20
2019-05-19T07:25:32.082Z,7.93
2019-05-19T07:30:36.027Z,7.50
2019-05-19T07:35:39.865Z,6.27
2019-05-19T07:40:43.652Z,7.03
2019-05-19T07:45:47.512Z,7.70
2019-05-19T07:51:10.552Z,7.00
2019-05-19T07:56:14.272Z,6.93
2019-05-19T08:01:18.097Z,7.40
2019-05-19T08:06:27.024Z,6.90
2019-05-19T08:11:30.995Z,6.60
2019-05-19T08:16:34.690Z,7.17
2019-05-19T08:21:38.410Z,6.60
2019-05-19T08:26:42.269Z,7.60
2019-05-19T08:31:46.042Z,6.30
2019-05-19T08:36:50.303Z,6.27
2019-05-19T08:41:54.097Z,7.77
2019-05-19T08:46:58.015Z,7.20
2019-05-19T08:52:01.847Z,7.87
2019-05-19T08:57:05.631Z,6.90
2019-05-19T09:02:09.352Z,6.90
2019-05-19T09:07:13.290Z,6.47
2019-05-19T09:12:17.023Z,6.83
2019-05-19T09:17:20.879Z,6.93
2019-05-19T09:22:24.885Z,6.03
2019-05-19T09:27:28.942Z,6.90
2019-05-19T09:32:32.906Z,8.93
2019-05-19T09:37:37.079Z,5.73
2019-05-19T09:42:40.896Z,6.17
2019-05-19T09:47:44.538Z,5.93
2019-05-19T09:52:48.408Z,6.60
2019-05-19T09:57:52.226Z,6.40
2019-05-19T10:02:56.113Z,6.93
2019-05-19T10:07:59.910Z,5.97
2019-05-19T10:13:03.692Z,6.00
2019-05-19T10:18:07.545Z,5.93
2019-05-19T10:23:11.226Z,5.83
2019-05-19T10:28:15.274Z,5.23
2019-05-19T10:33:19.027Z,4.80
2019-05-19T10:38:22.788Z,4.93
2019-05-19T10:43:26.571Z,5.77
2019-05-19T10:48:30.412Z,5.00
2019-05-19T10:53:34.335Z,5.03
2019-05-19T10:58:38.228Z,5.50
2019-05-19T11:03:42.405Z,6.83
2019-05-19T11:08:46.245Z,5.67
2019-05-19T11:13:50.268Z,5.40
2019-05-19T11:18:54.138Z,7.93
2019-05-19T11:23:57.921Z,5.20
2019-05-19T11:29:01.801Z,5.60
2019-05-19T11:34:05.616Z,7.63
2019-05-19T11:39:09.789Z,6.60
2019-05-19T11:44:13.590Z,7.43
2019-05-19T11:49:17.684Z,5.90
2019-05-19T11:54:21.463Z,8.10
2019-05-19T11:59:25.547Z,7.00
2019-05-19T12:04:29.299Z,6.50
2019-05-19T12:09:33.268Z,7.60
2019-05-19T12:14:37.068Z,7.00
2019-05-19T12:19:41.066Z,6.30
2019-05-19T12:24:44.896Z,6.47
2019-05-19T12:29:48.819Z,6.60
2019-05-19T12:34:52.831Z,6.37
2019-05-19T12:39:56.697Z,5.80
2019-05-19T12:45:00.475Z,5.77
2019-05-19T12:50:04.234Z,6.10
2019-05-19T12:55:08.188Z,5.90
2019-05-19T13:00:12.108Z,6.00
2019-05-19T13:05:16.740Z,5.80
2019-05-19T13:10:20.680Z,6.30
2019-05-19T13:15:24.788Z,6.00
2019-05-19T13:20:28.667Z,6.30
2019-05-19T13:25:32.446Z,6.30
2019-05-19T13:30:36.308Z,6.50
2019-05-19T13:35:40.187Z,7.70
2019-05-19T13:40:44.003Z,6.80
2019-05-19T13:45:47.833Z,6.70
2019-05-19T13:50:51.758Z,9.10
2019-05-19T13:55:55.737Z,8.50
2019-05-19T14:00:59.694Z,6.87
2019-05-19T14:06:03.503Z,9.13
2019-05-19T14:11:07.329Z,14.63
2019-05-19T14:16:11.146Z,14.20
2019-05-19T14:21:15.093Z,11.63
2019-05-19T14:26:19.030Z,11.07
2019-05-19T14:31:22.973Z,9.40
2019-05-19T14:36:26.824Z,8.37
2019-05-19T14:41:33.913Z,9.03
2019-05-19T14:46:37.759Z,6.87
2019-05-19T14:51:43.602Z,6.80
2019-05-19T14:56:47.384Z,7.23
2019-05-19T15:01:51.450Z,7.40
2019-05-19T15:06:55.281Z,6.77
2019-05-19T15:11:59.141Z,7.00
2019-05-19T15:17:02.818Z,6.30
2019-05-19T15:22:06.676Z,6.47
2019-05-19T15:27:10.579Z,5.90
2019-05-19T15:32:14.363Z,6.20
2019-05-19T15:37:18.124Z,6.37
2019-05-19T15:42:22.058Z,5.63
2019-05-19T15:47:26.107Z,6.23
2019-05-19T15:52:30.549Z,5.40
2019-05-19T15:57:35.204Z,6.17
2019-05-19T16:02:40.199Z,5.80
2019-05-19T16:07:45.001Z,6.57
2019-05-19T16:12:48.867Z,5.57
2019-05-19T16:17:52.789Z,5.90
2019-05-19T16:22:57.366Z,5.43
2019-05-19T16:28:01.318Z,5.43
2019-05-19T16:33:05.311Z,4.90
2019-05-19T16:38:09.163Z,6.17
2019-05-19T16:43:13.374Z,5.40
2019-05-19T16:48:17.534Z,5.80
2019-05-19T16:53:21.287Z,5.40
2019-05-19T16:58:25.403Z,6.53
2019-05-19T17:03:29.339Z,6.63
2019-05-19T17:08:33.839Z,5.60
2019-05-19T17:13:37.972Z,6.17
2019-05-19T17:18:41.827Z,5.53
2019-05-19T17:23:45.912Z,5.33
2019-05-19T17:29:00.102Z,6.00
2019-05-19T17:33:55.210Z,6.30
2019-05-19T17:38:59.027Z,6.10
2019-05-19T17:44:02.977Z,6.70
2019-05-19T17:49:07.213Z,6.37
2019-05-19T17:54:11.162Z,7.37
2019-05-19T17:59:16.792Z,7.23
2019-05-19T18:04:20.712Z,7.80
2019-05-19T18:09:24.931Z,9.50
2019-05-19T18:14:28.820Z,8.40
2019-05-19T18:19:33.154Z,9.03
2019-05-19T18:24:36.964Z,9.67
2019-05-19T18:29:40.666Z,10.07
2019-05-19T18:34:44.532Z,8.60
2019-05-19T18:39:48.342Z,8.20
2019-05-19T18:44:52.190Z,8.80
2019-05-19T18:49:56.045Z,9.60
2019-05-19T18:54:59.999Z,8.70
2019-05-19T19:00:04.131Z,10.47
2019-05-19T19:05:08.221Z,10.73
2019-05-19T19:10:11.944Z,9.37
2019-05-19T19:15:15.770Z,10.10
2019-05-19T19:20:19.473Z,10.10
2019-05-19T19:25:23.285Z,10.80
2019-05-19T19:30:27.221Z,9.80
2019-05-19T19:35:38.667Z,9.90
2019-05-19T19:40:36.489Z,9.70
2019-05-19T19:45:40.341Z,9.73
2019-05-19T19:50:44.116Z,9.13
2019-05-19T19:55:47.998Z,9.57
2019-05-19T20:00:51.782Z,9.03
2019-05-19T20:05:55.602Z,10.10
2019-05-19T20:10:59.398Z,10.10
2019-05-19T20:16:03.098Z,8.77
2019-05-19T20:21:07.153Z,9.10
2019-05-19T20:26:10.856Z,9.40
2019-05-19T20:31:14.574Z,8.80
2019-05-19T20:36:18.745Z,8.30
2019-05-19T20:41:22.711Z,8.90
2019-05-19T20:46:26.735Z,8.10
2019-05-19T20:51:33.304Z,6.90
2019-05-19T20:56:37.243Z,8.53
2019-05-19T21:01:41.052Z,7.00
2019-05-19T21:06:45.420Z,7.70
2019-05-19T21:11:49.390Z,7.70
2019-05-19T21:16:53.490Z,7.60
2019-05-19T21:21:57.369Z,9.27
2019-05-19T21:27:01.067Z,7.17
2019-05-19T21:32:04.807Z,6.97
2019-05-19T21:37:08.640Z,7.13
2019-05-19T21:42:12.749Z,7.50
2019-05-19T21:47:16.625Z,8.40
2019-05-19T21:52:20.363Z,7.07
2019-05-19T21:57:24.096Z,6.80
2019-05-19T22:02:27.913Z,6.50
2019-05-19T22:07:55.278Z,6.60
2019-05-19T22:12:58.967Z,6.70
2019-05-19T22:18:02.731Z,6.20
2019-05-19T22:23:06.555Z,5.90
2019-05-19T22:28:10.318Z,6.13
2019-05-19T22:33:14.131Z,6.03
2019-05-19T22:38:17.812Z,6.40
2019-05-19T22:43:21.513Z,6.40
2019-05-19T22:48:25.306Z,5.97
2019-05-19T22:53:28.979Z,6.50
2019-05-19T22:58:32.690Z,6.70
2019-05-19T23:03:36.437Z,6.07
2019-05-19T23:08:40.235Z,6.47
2019-05-19T23:13:44.164Z,6.20
2019-05-19T23:18:47.905Z,6.47
2019-05-19T23:23:51.724Z,6.13
2019-05-19T23:28:55.456Z,5.83
2019-05-19T23:33:59.167Z,6.10
2019-05-19T23:39:02.991Z,6.43
2019-05-19T23:44:06.833Z,5.83
2019-05-19T23:49:10.648Z,6.77
2019-05-19T23:54:14.417Z,6.50
2019-05-19T23:59:18.206Z,6.37
